Terminal Aerodrome Forecast
Issued by NWS

Home | Current Version | Previous Version | Graphics & Text | Print | Product List | Glossary On
Versions: 1 2 3 4 5 6 7 8 9 10 11 12 13 14 15 16 17 18 19
613
FTUS43 KICT 190520
TAFHUT
TAF
KHUT 190520Z 1906/2006 17008KT P6SM SCT250
     FM191200 16010KT 4SM BR OVC006
     FM191800 17012KT P6SM OVC012=

USA.gov is the U.S. government's official web portal to all federal, state and local government web resources and services.